Pagina principale
METAR-TAF:

METAR-TAF

Aeroporti :

Aeroporto di Bologna-Borgo Panigale

Bologna, Italia

latitudine: 44-32N, longitudine: 011-18E, altezza: 36 m

Osservazione

Il bollettino è stato emesso 12 minuti fa, alle 12:50 UTC
Vento 4 kt da nord/nord-est, variando fra nord/nord-ovest e est
Temperature 23°C
Umidità 57%
Pressione 1015 hPa
Visibilità 10 km o più
Nubi sparse ad un'altezza di 3500 ft

METAR: LIPE 231250Z 03004KT 330V100 9999 SCT035 23/14 Q1015

Ora: 15:02 (13:02 UTC)

Previsione

Il bollettino è stato emesso 2 ore e 2 minuti fa, alle 11:00 UTC
Previsione valida dal 23 alle 12 UTC al 24 alle 12 UTC
Vento 5 kt da direzioni variabili
Visibilità 10 km o più
Nubi sparse ad un'altezza di 3000 ft
Probabilità 30% :
Temporaneamente
dal 23 alle 12 UTC al 23 alle 18 UTC
rovesci di pioggia
Temporaneamente
dal 24 alle 00 UTC al 24 alle 06 UTC
Visibilità: 3000 m
foschia

TAF: LIPE 231100Z 2312/2412 VRB05KT 9999 SCT030 PROB30 TEMPO 2312/2318 SHRA TEMPO 2400/2406 3000 BR

Osservazioni e previsioni meteorologiche di più di 4000 aeroporti (messaggi METAR e TAF).

Le stazioni disponibili sono rappresentate dai dischi gialli e rossi sulla carta.

Puntare il mouse per vedere il nome della stazione.

Clicca sopra per visualizzare le osservazioni e previsioni meteorologiche.

Per cambiare la mappa : fare clic sui pulsanti verdi con una croce nera per ingrandire, il pulsante verde con un trattino per diminuire, o sulla freccia verde per le mappe adiacenti.


METAR-TAF: